sensor_id;sensor_type;location;lat;lon;timestamp;P1;durP1;ratioP1;P2;durP2;ratioP2
38859;SDS011;24609;48.316;16.174;2024-03-02T00:00:10;110.53;;;53.22;;
38859;SDS011;24609;48.316;16.174;2024-03-02T00:05:06;101.97;;;49.17;;
38859;SDS011;24609;48.316;16.174;2024-03-02T00:07:32;90.35;;;47.85;;
38859;SDS011;24609;48.316;16.174;2024-03-02T00:09:58;96.82;;;46.13;;
38859;SDS011;24609;48.316;16.174;2024-03-02T00:12:24;83.72;;;44.72;;
38859;SDS011;24609;48.316;16.174;2024-03-02T00:14:51;86.07;;;44.00;;
38859;SDS011;24609;48.316;16.174;2024-03-02T00:17:24;94.88;;;48.95;;
38859;SDS011;24609;48.316;16.174;2024-03-02T00:19:50;91.75;;;48.33;;
38859;SDS011;24609;48.316;16.174;2024-03-02T00:22:17;94.13;;;46.60;;
38859;SDS011;24609;48.316;16.174;2024-03-02T00:24:43;90.38;;;45.67;;
38859;SDS011;24609;48.316;16.174;2024-03-02T00:27:08;96.82;;;46.97;;
38859;SDS011;24609;48.316;16.174;2024-03-02T00:29:39;98.40;;;49.35;;
38859;SDS011;24609;48.316;16.174;2024-03-02T00:32:12;90.63;;;45.10;;
38859;SDS011;24609;48.316;16.174;2024-03-02T00:34:40;85.70;;;47.20;;
38859;SDS011;24609;48.316;16.174;2024-03-02T00:37:05;91.35;;;45.17;;
38859;SDS011;24609;48.316;16.174;2024-03-02T00:39:32;86.38;;;44.92;;
38859;SDS011;24609;48.316;16.174;2024-03-02T00:41:58;87.28;;;46.45;;
38859;SDS011;24609;48.316;16.174;2024-03-02T00:44:25;89.95;;;47.30;;
38859;SDS011;24609;48.316;16.174;2024-03-02T00:46:59;88.07;;;45.38;;
38859;SDS011;24609;48.316;16.174;2024-03-02T00:49:25;81.88;;;43.25;;
38859;SDS011;24609;48.316;16.174;2024-03-02T00:51:52;88.15;;;47.42;;
38859;SDS011;24609;48.316;16.174;2024-03-02T00:54:22;91.95;;;48.55;;
38859;SDS011;24609;48.316;16.174;2024-03-02T00:56:51;81.38;;;45.30;;
38859;SDS011;24609;48.316;16.174;2024-03-02T00:59:21;92.28;;;46.55;;
38859;SDS011;24609;48.316;16.174;2024-03-02T01:01:48;78.35;;;43.55;;
38859;SDS011;24609;48.316;16.174;2024-03-02T01:04:16;86.28;;;45.88;;
38859;SDS011;24609;48.316;16.174;2024-03-02T01:06:42;75.25;;;43.50;;
38859;SDS011;24609;48.316;16.174;2024-03-02T01:09:08;70.15;;;40.55;;
38859;SDS011;24609;48.316;16.174;2024-03-02T01:11:34;77.30;;;42.00;;
38859;SDS011;24609;48.316;16.174;2024-03-02T01:14:00;84.75;;;45.45;;
38859;SDS011;24609;48.316;16.174;2024-03-02T01:16:25;73.40;;;41.92;;
38859;SDS011;24609;48.316;16.174;2024-03-02T01:18:51;65.63;;;38.55;;
38859;SDS011;24609;48.316;16.174;2024-03-02T01:21:17;78.03;;;42.40;;
38859;SDS011;24609;48.316;16.174;2024-03-02T01:23:43;67.68;;;38.45;;
38859;SDS011;24609;48.316;16.174;2024-03-02T01:26:08;63.70;;;38.10;;
38859;SDS011;24609;48.316;16.174;2024-03-02T01:28:34;66.78;;;38.75;;
38859;SDS011;24609;48.316;16.174;2024-03-02T01:31:00;70.28;;;40.03;;
38859;SDS011;24609;48.316;16.174;2024-03-02T01:33:27;78.68;;;41.95;;
38859;SDS011;24609;48.316;16.174;2024-03-02T01:35:52;82.57;;;44.78;;
38859;SDS011;24609;48.316;16.174;2024-03-02T01:38:18;83.70;;;46.28;;
38859;SDS011;24609;48.316;16.174;2024-03-02T01:40:44;83.18;;;45.15;;
38859;SDS011;24609;48.316;16.174;2024-03-02T01:43:10;88.18;;;45.00;;
38859;SDS011;24609;48.316;16.174;2024-03-02T01:45:36;82.28;;;44.20;;
38859;SDS011;24609;48.316;16.174;2024-03-02T01:48:02;92.13;;;46.60;;
38859;SDS011;24609;48.316;16.174;2024-03-02T01:50:31;84.70;;;43.65;;
38859;SDS011;24609;48.316;16.174;2024-03-02T01:52:58;80.50;;;44.42;;
38859;SDS011;24609;48.316;16.174;2024-03-02T01:55:24;96.43;;;49.40;;
38859;SDS011;24609;48.316;16.174;2024-03-02T01:57:51;84.07;;;45.38;;
38859;SDS011;24609;48.316;16.174;2024-03-02T02:00:21;96.50;;;48.08;;
38859;SDS011;24609;48.316;16.174;2024-03-02T02:02:49;97.53;;;50.70;;
38859;SDS011;24609;48.316;16.174;2024-03-02T02:07:42;92.22;;;47.47;;
38859;SDS011;24609;48.316;16.174;2024-03-02T02:10:08;80.55;;;46.58;;
38859;SDS011;24609;48.316;16.174;2024-03-02T02:12:35;101.38;;;56.95;;
38859;SDS011;24609;48.316;16.174;2024-03-02T02:15:01;98.50;;;51.25;;
38859;SDS011;24609;48.316;16.174;2024-03-02T02:17:27;101.43;;;52.78;;
38859;SDS011;24609;48.316;16.174;2024-03-02T02:19:53;106.82;;;56.53;;
38859;SDS011;24609;48.316;16.174;2024-03-02T02:22:18;102.32;;;56.33;;
38859;SDS011;24609;48.316;16.174;2024-03-02T02:24:44;99.60;;;53.97;;
38859;SDS011;24609;48.316;16.174;2024-03-02T02:27:10;97.78;;;54.58;;
38859;SDS011;24609;48.316;16.174;2024-03-02T02:29:36;95.95;;;52.80;;
38859;SDS011;24609;48.316;16.174;2024-03-02T02:32:02;90.03;;;50.67;;
38859;SDS011;24609;48.316;16.174;2024-03-02T02:34:27;98.72;;;52.88;;
38859;SDS011;24609;48.316;16.174;2024-03-02T02:36:53;75.07;;;44.17;;
38859;SDS011;24609;48.316;16.174;2024-03-02T02:39:20;73.35;;;41.10;;
38859;SDS011;24609;48.316;16.174;2024-03-02T02:41:47;75.20;;;40.78;;
38859;SDS011;24609;48.316;16.174;2024-03-02T02:44:13;77.28;;;42.50;;
38859;SDS011;24609;48.316;16.174;2024-03-02T02:46:39;70.63;;;40.72;;
38859;SDS011;24609;48.316;16.174;2024-03-02T02:49:05;83.43;;;42.70;;
38859;SDS011;24609;48.316;16.174;2024-03-02T02:51:31;75.75;;;41.30;;
38859;SDS011;24609;48.316;16.174;2024-03-02T02:53:57;74.72;;;40.42;;
38859;SDS011;24609;48.316;16.174;2024-03-02T02:56:22;80.55;;;40.92;;
38859;SDS011;24609;48.316;16.174;2024-03-02T02:58:49;79.97;;;42.15;;
38859;SDS011;24609;48.316;16.174;2024-03-02T03:01:15;76.32;;;41.00;;
38859;SDS011;24609;48.316;16.174;2024-03-02T03:03:44;82.57;;;42.70;;
38859;SDS011;24609;48.316;16.174;2024-03-02T03:06:10;88.93;;;45.10;;
38859;SDS011;24609;48.316;16.174;2024-03-02T03:08:36;80.43;;;40.58;;
38859;SDS011;24609;48.316;16.174;2024-03-02T03:11:02;89.50;;;45.63;;
38859;SDS011;24609;48.316;16.174;2024-03-02T03:13:28;89.05;;;47.72;;
38859;SDS011;24609;48.316;16.174;2024-03-02T03:15:54;87.88;;;45.42;;
38859;SDS011;24609;48.316;16.174;2024-03-02T03:18:20;99.75;;;50.42;;
38859;SDS011;24609;48.316;16.174;2024-03-02T03:20:45;81.88;;;44.78;;
38859;SDS011;24609;48.316;16.174;2024-03-02T03:23:11;74.78;;;43.10;;
38859;SDS011;24609;48.316;16.174;2024-03-02T03:25:40;76.63;;;40.33;;
38859;SDS011;24609;48.316;16.174;2024-03-02T03:28:07;76.75;;;42.28;;
38859;SDS011;24609;48.316;16.174;2024-03-02T03:30:34;84.22;;;44.88;;
38859;SDS011;24609;48.316;16.174;2024-03-02T03:33:04;90.20;;;46.50;;
38859;SDS011;24609;48.316;16.174;2024-03-02T03:35:33;88.07;;;47.20;;
38859;SDS011;24609;48.316;16.174;2024-03-02T03:37:59;90.60;;;48.65;;
38859;SDS011;24609;48.316;16.174;2024-03-02T03:40:25;101.07;;;50.00;;
38859;SDS011;24609;48.316;16.174;2024-03-02T03:42:51;101.50;;;54.25;;
38859;SDS011;24609;48.316;16.174;2024-03-02T03:45:17;112.65;;;57.88;;
38859;SDS011;24609;48.316;16.174;2024-03-02T03:47:42;119.60;;;62.58;;
38859;SDS011;24609;48.316;16.174;2024-03-02T03:50:08;143.23;;;69.55;;
38859;SDS011;24609;48.316;16.174;2024-03-02T03:52:34;131.65;;;64.70;;
38859;SDS011;24609;48.316;16.174;2024-03-02T03:55:00;134.27;;;67.90;;
38859;SDS011;24609;48.316;16.174;2024-03-02T03:57:26;145.65;;;68.30;;
38859;SDS011;24609;48.316;16.174;2024-03-02T03:59:52;145.23;;;67.10;;
38859;SDS011;24609;48.316;16.174;2024-03-02T04:02:18;127.57;;;67.07;;
38859;SDS011;24609;48.316;16.174;2024-03-02T04:04:43;134.05;;;66.90;;
38859;SDS011;24609;48.316;16.174;2024-03-02T04:07:09;213.43;;;76.72;;
38859;SDS011;24609;48.316;16.174;2024-03-02T04:09:35;328.88;;;84.65;;
38859;SDS011;24609;48.316;16.174;2024-03-02T04:12:01;403.92;;;92.85;;
38859;SDS011;24609;48.316;16.174;2024-03-02T04:14:26;274.75;;;79.95;;
38859;SDS011;24609;48.316;16.174;2024-03-02T04:16:52;263.00;;;74.43;;
38859;SDS011;24609;48.316;16.174;2024-03-02T04:19:18;351.42;;;75.22;;
38859;SDS011;24609;48.316;16.174;2024-03-02T04:21:43;390.60;;;78.95;;
38859;SDS011;24609;48.316;16.174;2024-03-02T04:24:09;193.20;;;64.07;;
38859;SDS011;24609;48.316;16.174;2024-03-02T04:26:35;557.20;;;91.47;;
38859;SDS011;24609;48.316;16.174;2024-03-02T04:29:00;235.50;;;70.25;;
38859;SDS011;24609;48.316;16.174;2024-03-02T04:31:26;240.50;;;70.22;;
38859;SDS011;24609;48.316;16.174;2024-03-02T04:33:52;161.32;;;63.42;;
38859;SDS011;24609;48.316;16.174;2024-03-02T04:36:19;157.23;;;62.28;;
38859;SDS011;24609;48.316;16.174;2024-03-02T04:38:46;486.10;;;99.90;;
38859;SDS011;24609;48.316;16.174;2024-03-02T04:41:11;186.40;;;59.85;;
38859;SDS011;24609;48.316;16.174;2024-03-02T04:43:37;441.65;;;78.57;;
38859;SDS011;24609;48.316;16.174;2024-03-02T04:46:02;253.57;;;64.40;;
38859;SDS011;24609;48.316;16.174;2024-03-02T04:48:28;452.27;;;70.28;;
38859;SDS011;24609;48.316;16.174;2024-03-02T04:50:54;376.65;;;63.58;;
38859;SDS011;24609;48.316;16.174;2024-03-02T04:53:20;356.08;;;69.20;;
38859;SDS011;24609;48.316;16.174;2024-03-02T04:55:45;1099.53;;;155.73;;
38859;SDS011;24609;48.316;16.174;2024-03-02T04:58:31;309.40;;;66.50;;
38859;SDS011;24609;48.316;16.174;2024-03-02T05:00:57;335.90;;;64.15;;
38859;SDS011;24609;48.316;16.174;2024-03-02T05:03:23;507.70;;;79.60;;
38859;SDS011;24609;48.316;16.174;2024-03-02T05:05:49;557.03;;;88.38;;
38859;SDS011;24609;48.316;16.174;2024-03-02T05:08:15;405.63;;;69.70;;
38859;SDS011;24609;48.316;16.174;2024-03-02T05:10:42;282.65;;;59.92;;
38859;SDS011;24609;48.316;16.174;2024-03-02T05:13:07;433.45;;;70.88;;
38859;SDS011;24609;48.316;16.174;2024-03-02T05:15:33;334.58;;;63.65;;
38859;SDS011;24609;48.316;16.174;2024-03-02T05:17:59;331.10;;;60.08;;
38859;SDS011;24609;48.316;16.174;2024-03-02T05:20:25;248.32;;;53.55;;
38859;SDS011;24609;48.316;16.174;2024-03-02T05:22:50;402.42;;;68.10;;
38859;SDS011;24609;48.316;16.174;2024-03-02T05:25:16;276.52;;;57.72;;
38859;SDS011;24609;48.316;16.174;2024-03-02T05:27:42;304.40;;;55.92;;
38859;SDS011;24609;48.316;16.174;2024-03-02T05:30:08;336.27;;;66.97;;
38859;SDS011;24609;48.316;16.174;2024-03-02T05:32:34;463.33;;;81.97;;
38859;SDS011;24609;48.316;16.174;2024-03-02T05:34:59;267.02;;;60.38;;
38859;SDS011;24609;48.316;16.174;2024-03-02T05:37:25;295.65;;;63.97;;
38859;SDS011;24609;48.316;16.174;2024-03-02T05:39:50;550.17;;;91.95;;
38859;SDS011;24609;48.316;16.174;2024-03-02T05:42:16;184.55;;;51.33;;
38859;SDS011;24609;48.316;16.174;2024-03-02T05:44:42;329.05;;;64.80;;
38859;SDS011;24609;48.316;16.174;2024-03-02T05:47:08;339.90;;;65.35;;
38859;SDS011;24609;48.316;16.174;2024-03-02T05:49:34;315.63;;;58.47;;
38859;SDS011;24609;48.316;16.174;2024-03-02T05:52:00;213.15;;;52.17;;
38859;SDS011;24609;48.316;16.174;2024-03-02T05:54:26;352.02;;;62.70;;
38859;SDS011;24609;48.316;16.174;2024-03-02T05:56:51;347.85;;;64.15;;
38859;SDS011;24609;48.316;16.174;2024-03-02T05:59:17;675.45;;;123.80;;
38859;SDS011;24609;48.316;16.174;2024-03-02T06:01:43;403.55;;;71.82;;
38859;SDS011;24609;48.316;16.174;2024-03-02T06:04:11;323.35;;;69.20;;
38859;SDS011;24609;48.316;16.174;2024-03-02T06:06:37;255.00;;;59.45;;
38859;SDS011;24609;48.316;16.174;2024-03-02T06:09:04;237.43;;;50.28;;
38859;SDS011;24609;48.316;16.174;2024-03-02T06:11:36;218.63;;;52.47;;
38859;SDS011;24609;48.316;16.174;2024-03-02T06:14:02;355.40;;;62.67;;
38859;SDS011;24609;48.316;16.174;2024-03-02T06:16:29;351.33;;;70.57;;
38859;SDS011;24609;48.316;16.174;2024-03-02T06:18:55;281.77;;;63.13;;
38859;SDS011;24609;48.316;16.174;2024-03-02T06:21:22;312.08;;;60.35;;
38859;SDS011;24609;48.316;16.174;2024-03-02T06:23:48;297.30;;;66.80;;
38859;SDS011;24609;48.316;16.174;2024-03-02T06:26:14;268.60;;;59.60;;
38859;SDS011;24609;48.316;16.174;2024-03-02T06:28:40;238.10;;;56.95;;
38859;SDS011;24609;48.316;16.174;2024-03-02T06:31:06;302.90;;;62.97;;
38859;SDS011;24609;48.316;16.174;2024-03-02T06:33:31;476.80;;;93.35;;
38859;SDS011;24609;48.316;16.174;2024-03-02T06:35:57;268.58;;;60.63;;
38859;SDS011;24609;48.316;16.174;2024-03-02T06:38:26;307.45;;;61.33;;
38859;SDS011;24609;48.316;16.174;2024-03-02T06:40:52;657.85;;;107.50;;
38859;SDS011;24609;48.316;16.174;2024-03-02T06:43:18;394.70;;;69.57;;
38859;SDS011;24609;48.316;16.174;2024-03-02T06:45:48;255.20;;;57.63;;
38859;SDS011;24609;48.316;16.174;2024-03-02T06:48:17;416.48;;;80.63;;
38859;SDS011;24609;48.316;16.174;2024-03-02T06:50:49;435.05;;;80.55;;
38859;SDS011;24609;48.316;16.174;2024-03-02T06:53:15;327.10;;;71.90;;
38859;SDS011;24609;48.316;16.174;2024-03-02T06:58:11;459.52;;;86.63;;
38859;SDS011;24609;48.316;16.174;2024-03-02T07:00:37;219.60;;;53.78;;
38859;SDS011;24609;48.316;16.174;2024-03-02T07:03:03;285.55;;;56.65;;
38859;SDS011;24609;48.316;16.174;2024-03-02T07:05:29;194.23;;;50.95;;
38859;SDS011;24609;48.316;16.174;2024-03-02T07:07:55;208.52;;;52.38;;
38859;SDS011;24609;48.316;16.174;2024-03-02T07:10:20;188.63;;;49.20;;
38859;SDS011;24609;48.316;16.174;2024-03-02T07:12:46;284.20;;;69.20;;
38859;SDS011;24609;48.316;16.174;2024-03-02T07:15:12;174.50;;;49.90;;
38859;SDS011;24609;48.316;16.174;2024-03-02T07:17:52;189.32;;;47.15;;
38859;SDS011;24609;48.316;16.174;2024-03-02T07:20:18;124.60;;;44.53;;
38859;SDS011;24609;48.316;16.174;2024-03-02T07:22:44;121.07;;;45.58;;
38859;SDS011;24609;48.316;16.174;2024-03-02T07:25:09;280.60;;;60.88;;
38859;SDS011;24609;48.316;16.174;2024-03-02T07:27:35;425.95;;;72.50;;
38859;SDS011;24609;48.316;16.174;2024-03-02T07:30:02;145.90;;;43.88;;
38859;SDS011;24609;48.316;16.174;2024-03-02T07:32:28;172.02;;;51.80;;
38859;SDS011;24609;48.316;16.174;2024-03-02T07:34:54;136.35;;;44.63;;
38859;SDS011;24609;48.316;16.174;2024-03-02T07:37:20;124.50;;;44.88;;
38859;SDS011;24609;48.316;16.174;2024-03-02T07:39:47;119.88;;;44.10;;
38859;SDS011;24609;48.316;16.174;2024-03-02T07:42:12;107.20;;;42.65;;
38859;SDS011;24609;48.316;16.174;2024-03-02T07:44:38;116.85;;;38.55;;
38859;SDS011;24609;48.316;16.174;2024-03-02T07:47:04;104.25;;;39.03;;
38859;SDS011;24609;48.316;16.174;2024-03-02T07:49:30;83.43;;;40.22;;
38859;SDS011;24609;48.316;16.174;2024-03-02T07:51:56;108.72;;;40.40;;
38859;SDS011;24609;48.316;16.174;2024-03-02T07:54:21;219.60;;;128.63;;
38859;SDS011;24609;48.316;16.174;2024-03-02T07:56:47;126.60;;;53.17;;
38859;SDS011;24609;48.316;16.174;2024-03-02T07:59:14;208.55;;;61.15;;
38859;SDS011;24609;48.316;16.174;2024-03-02T08:01:40;159.60;;;66.10;;
38859;SDS011;24609;48.316;16.174;2024-03-02T08:04:05;309.08;;;80.55;;
38859;SDS011;24609;48.316;16.174;2024-03-02T08:06:31;216.02;;;104.82;;
38859;SDS011;24609;48.316;16.174;2024-03-02T08:08:57;148.23;;;62.17;;
38859;SDS011;24609;48.316;16.174;2024-03-02T08:11:25;112.55;;;52.00;;
38859;SDS011;24609;48.316;16.174;2024-03-02T08:13:52;85.32;;;50.25;;
38859;SDS011;24609;48.316;16.174;2024-03-02T08:16:19;122.97;;;51.40;;
38859;SDS011;24609;48.316;16.174;2024-03-02T08:18:47;67.22;;;39.97;;
38859;SDS011;24609;48.316;16.174;2024-03-02T08:21:14;85.70;;;45.70;;
38859;SDS011;24609;48.316;16.174;2024-03-02T08:23:40;61.75;;;40.50;;
38859;SDS011;24609;48.316;16.174;2024-03-02T08:26:07;54.10;;;34.50;;
38859;SDS011;24609;48.316;16.174;2024-03-02T08:28:33;54.17;;;35.55;;
38859;SDS011;24609;48.316;16.174;2024-03-02T08:30:59;47.60;;;32.10;;
38859;SDS011;24609;48.316;16.174;2024-03-02T08:33:24;45.67;;;30.58;;
38859;SDS011;24609;48.316;16.174;2024-03-02T08:35:50;52.20;;;37.33;;
38859;SDS011;24609;48.316;16.174;2024-03-02T08:38:16;65.10;;;46.92;;
38859;SDS011;24609;48.316;16.174;2024-03-02T08:40:42;46.33;;;31.65;;
38859;SDS011;24609;48.316;16.174;2024-03-02T08:43:08;49.13;;;37.10;;
38859;SDS011;24609;48.316;16.174;2024-03-02T08:45:34;44.63;;;32.22;;
38859;SDS011;24609;48.316;16.174;2024-03-02T08:48:00;45.10;;;31.50;;
38859;SDS011;24609;48.316;16.174;2024-03-02T08:50:26;45.08;;;31.60;;
38859;SDS011;24609;48.316;16.174;2024-03-02T08:52:52;42.35;;;30.33;;
38859;SDS011;24609;48.316;16.174;2024-03-02T08:55:18;52.03;;;36.78;;
38859;SDS011;24609;48.316;16.174;2024-03-02T08:57:43;45.15;;;32.35;;
38859;SDS011;24609;48.316;16.174;2024-03-02T09:00:09;50.42;;;35.40;;
38859;SDS011;24609;48.316;16.174;2024-03-02T09:02:35;41.30;;;30.83;;
38859;SDS011;24609;48.316;16.174;2024-03-02T09:05:01;37.30;;;26.30;;
38859;SDS011;24609;48.316;16.174;2024-03-02T09:07:27;33.80;;;25.38;;
38859;SDS011;24609;48.316;16.174;2024-03-02T09:09:53;34.95;;;24.85;;
38859;SDS011;24609;48.316;16.174;2024-03-02T09:12:19;34.30;;;24.20;;
38859;SDS011;24609;48.316;16.174;2024-03-02T09:14:44;38.08;;;27.95;;
38859;SDS011;24609;48.316;16.174;2024-03-02T09:17:11;36.83;;;25.17;;
38859;SDS011;24609;48.316;16.174;2024-03-02T09:19:39;37.15;;;25.13;;
38859;SDS011;24609;48.316;16.174;2024-03-02T09:22:05;35.40;;;23.23;;
38859;SDS011;24609;48.316;16.174;2024-03-02T09:24:31;34.42;;;23.52;;
38859;SDS011;24609;48.316;16.174;2024-03-02T09:26:58;37.05;;;23.83;;
38859;SDS011;24609;48.316;16.174;2024-03-02T09:29:24;36.47;;;24.00;;
38859;SDS011;24609;48.316;16.174;2024-03-02T09:31:50;33.83;;;22.58;;
38859;SDS011;24609;48.316;16.174;2024-03-02T09:34:16;33.17;;;24.30;;
38859;SDS011;24609;48.316;16.174;2024-03-02T09:36:42;39.40;;;25.15;;
38859;SDS011;24609;48.316;16.174;2024-03-02T09:39:08;36.90;;;24.10;;
38859;SDS011;24609;48.316;16.174;2024-03-02T09:41:34;35.88;;;24.90;;
38859;SDS011;24609;48.316;16.174;2024-03-02T09:46:29;31.23;;;20.48;;
38859;SDS011;24609;48.316;16.174;2024-03-02T09:48:55;30.27;;;20.65;;
38859;SDS011;24609;48.316;16.174;2024-03-02T09:51:21;32.17;;;22.95;;
38859;SDS011;24609;48.316;16.174;2024-03-02T09:53:48;33.58;;;23.70;;
38859;SDS011;24609;48.316;16.174;2024-03-02T09:56:14;30.38;;;21.92;;
38859;SDS011;24609;48.316;16.174;2024-03-02T09:58:41;30.55;;;21.42;;
38859;SDS011;24609;48.316;16.174;2024-03-02T10:01:06;30.48;;;21.35;;
38859;SDS011;24609;48.316;16.174;2024-03-02T10:03:33;36.80;;;25.15;;
38859;SDS011;24609;48.316;16.174;2024-03-02T10:08:53;38.63;;;25.05;;
38859;SDS011;24609;48.316;16.174;2024-03-02T10:11:33;41.55;;;26.98;;
38859;SDS011;24609;48.316;16.174;2024-03-02T10:14:11;37.33;;;25.65;;
38859;SDS011;24609;48.316;16.174;2024-03-02T10:16:38;38.90;;;24.77;;
38859;SDS011;24609;48.316;16.174;2024-03-02T10:21:50;38.97;;;26.23;;
38859;SDS011;24609;48.316;16.174;2024-03-02T10:24:17;38.33;;;25.02;;
38859;SDS011;24609;48.316;16.174;2024-03-02T10:26:44;41.08;;;26.80;;
38859;SDS011;24609;48.316;16.174;2024-03-02T10:29:11;39.95;;;26.65;;
38859;SDS011;24609;48.316;16.174;2024-03-02T10:31:38;39.17;;;26.38;;
38859;SDS011;24609;48.316;16.174;2024-03-02T10:34:04;40.05;;;27.25;;
38859;SDS011;24609;48.316;16.174;2024-03-02T10:36:31;39.97;;;28.15;;
38859;SDS011;24609;48.316;16.174;2024-03-02T10:39:05;36.45;;;26.80;;
38859;SDS011;24609;48.316;16.174;2024-03-02T10:41:32;41.83;;;25.77;;
38859;SDS011;24609;48.316;16.174;2024-03-02T10:44:05;38.33;;;25.95;;
38859;SDS011;24609;48.316;16.174;2024-03-02T10:46:33;33.17;;;23.80;;
38859;SDS011;24609;48.316;16.174;2024-03-02T10:49:00;30.70;;;22.85;;
38859;SDS011;24609;48.316;16.174;2024-03-02T10:51:27;34.97;;;23.73;;
38859;SDS011;24609;48.316;16.174;2024-03-02T10:56:32;37.05;;;24.75;;
38859;SDS011;24609;48.316;16.174;2024-03-02T11:01:38;34.05;;;23.13;;
38859;SDS011;24609;48.316;16.174;2024-03-02T11:04:04;35.20;;;26.08;;
38859;SDS011;24609;48.316;16.174;2024-03-02T11:06:34;31.30;;;24.60;;
38859;SDS011;24609;48.316;16.174;2024-03-02T11:09:05;35.25;;;24.98;;
38859;SDS011;24609;48.316;16.174;2024-03-02T11:11:36;35.75;;;25.45;;
38859;SDS011;24609;48.316;16.174;2024-03-02T11:14:07;39.47;;;27.88;;
38859;SDS011;24609;48.316;16.174;2024-03-02T11:16:38;43.73;;;28.17;;
38859;SDS011;24609;48.316;16.174;2024-03-02T11:19:06;39.53;;;28.77;;
38859;SDS011;24609;48.316;16.174;2024-03-02T11:21:36;42.25;;;29.60;;
38859;SDS011;24609;48.316;16.174;2024-03-02T11:26:48;43.58;;;29.55;;
38859;SDS011;24609;48.316;16.174;2024-03-02T11:32:22;44.53;;;31.08;;
38859;SDS011;24609;48.316;16.174;2024-03-02T11:34:51;48.72;;;33.53;;
38859;SDS011;24609;48.316;16.174;2024-03-02T11:37:20;48.33;;;33.75;;
38859;SDS011;24609;48.316;16.174;2024-03-02T11:39:46;49.90;;;33.00;;
38859;SDS011;24609;48.316;16.174;2024-03-02T11:42:14;51.45;;;36.53;;
38859;SDS011;24609;48.316;16.174;2024-03-02T11:44:42;60.45;;;39.60;;
38859;SDS011;24609;48.316;16.174;2024-03-02T11:49:43;59.42;;;38.67;;
38859;SDS011;24609;48.316;16.174;2024-03-02T11:52:16;59.10;;;39.65;;
38859;SDS011;24609;48.316;16.174;2024-03-02T11:54:45;61.83;;;40.58;;
38859;SDS011;24609;48.316;16.174;2024-03-02T11:57:16;47.75;;;32.50;;
38859;SDS011;24609;48.316;16.174;2024-03-02T11:59:43;52.58;;;36.35;;
38859;SDS011;24609;48.316;16.174;2024-03-02T12:02:14;48.35;;;34.22;;
38859;SDS011;24609;48.316;16.174;2024-03-02T12:04:45;49.17;;;36.40;;
38859;SDS011;24609;48.316;16.174;2024-03-02T12:07:12;53.95;;;37.03;;
38859;SDS011;24609;48.316;16.174;2024-03-02T12:09:48;51.70;;;36.38;;
38859;SDS011;24609;48.316;16.174;2024-03-02T12:12:23;48.70;;;34.47;;
38859;SDS011;24609;48.316;16.174;2024-03-02T12:14:50;52.28;;;37.25;;
38859;SDS011;24609;48.316;16.174;2024-03-02T12:17:21;64.70;;;41.28;;
38859;SDS011;24609;48.316;16.174;2024-03-02T12:19:47;72.38;;;47.63;;
38859;SDS011;24609;48.316;16.174;2024-03-02T12:22:13;49.45;;;35.85;;
38859;SDS011;24609;48.316;16.174;2024-03-02T12:24:39;52.80;;;35.03;;
38859;SDS011;24609;48.316;16.174;2024-03-02T12:27:07;69.18;;;43.92;;
38859;SDS011;24609;48.316;16.174;2024-03-02T12:29:33;57.40;;;38.33;;
38859;SDS011;24609;48.316;16.174;2024-03-02T12:31:59;51.33;;;37.25;;
38859;SDS011;24609;48.316;16.174;2024-03-02T12:34:27;52.75;;;34.95;;
38859;SDS011;24609;48.316;16.174;2024-03-02T12:36:53;51.63;;;36.95;;
38859;SDS011;24609;48.316;16.174;2024-03-02T12:39:18;47.60;;;35.60;;
38859;SDS011;24609;48.316;16.174;2024-03-02T12:41:45;63.60;;;46.72;;
38859;SDS011;24609;48.316;16.174;2024-03-02T12:44:11;49.22;;;35.05;;
38859;SDS011;24609;48.316;16.174;2024-03-02T12:46:37;47.13;;;33.53;;
38859;SDS011;24609;48.316;16.174;2024-03-02T12:49:13;45.03;;;33.28;;
38859;SDS011;24609;48.316;16.174;2024-03-02T12:51:41;44.40;;;33.92;;
38859;SDS011;24609;48.316;16.174;2024-03-02T12:54:07;45.70;;;34.50;;
38859;SDS011;24609;48.316;16.174;2024-03-02T12:56:34;48.05;;;33.53;;
38859;SDS011;24609;48.316;16.174;2024-03-02T12:59:01;46.20;;;36.60;;
38859;SDS011;24609;48.316;16.174;2024-03-02T13:01:26;46.15;;;36.78;;
38859;SDS011;24609;48.316;16.174;2024-03-02T13:03:52;50.67;;;37.72;;
38859;SDS011;24609;48.316;16.174;2024-03-02T13:06:22;52.25;;;37.17;;
38859;SDS011;24609;48.316;16.174;2024-03-02T13:08:49;46.70;;;35.85;;
38859;SDS011;24609;48.316;16.174;2024-03-02T13:11:15;45.17;;;35.63;;
38859;SDS011;24609;48.316;16.174;2024-03-02T13:13:42;48.03;;;35.33;;
38859;SDS011;24609;48.316;16.174;2024-03-02T13:16:08;51.65;;;35.53;;
38859;SDS011;24609;48.316;16.174;2024-03-02T13:18:35;58.67;;;41.80;;
38859;SDS011;24609;48.316;16.174;2024-03-02T13:21:01;60.47;;;43.35;;
38859;SDS011;24609;48.316;16.174;2024-03-02T13:23:27;55.00;;;37.25;;
38859;SDS011;24609;48.316;16.174;2024-03-02T13:25:55;51.33;;;37.65;;
38859;SDS011;24609;48.316;16.174;2024-03-02T13:28:27;53.88;;;39.13;;
38859;SDS011;24609;48.316;16.174;2024-03-02T13:30:53;49.80;;;34.55;;
38859;SDS011;24609;48.316;16.174;2024-03-02T13:33:19;56.03;;;39.25;;
38859;SDS011;24609;48.316;16.174;2024-03-02T13:35:48;47.20;;;35.42;;
38859;SDS011;24609;48.316;16.174;2024-03-02T13:38:17;50.50;;;34.05;;
38859;SDS011;24609;48.316;16.174;2024-03-02T13:40:44;54.78;;;37.60;;
38859;SDS011;24609;48.316;16.174;2024-03-02T13:43:10;55.28;;;33.97;;
38859;SDS011;24609;48.316;16.174;2024-03-02T13:45:37;64.82;;;42.65;;
38859;SDS011;24609;48.316;16.174;2024-03-02T13:48:03;50.17;;;34.78;;
38859;SDS011;24609;48.316;16.174;2024-03-02T13:50:29;48.65;;;35.78;;
38859;SDS011;24609;48.316;16.174;2024-03-02T13:52:55;44.70;;;33.25;;
38859;SDS011;24609;48.316;16.174;2024-03-02T13:55:21;42.22;;;32.03;;
38859;SDS011;24609;48.316;16.174;2024-03-02T13:57:47;43.70;;;31.70;;
38859;SDS011;24609;48.316;16.174;2024-03-02T14:00:15;39.83;;;30.42;;
38859;SDS011;24609;48.316;16.174;2024-03-02T14:02:44;40.75;;;30.13;;
38859;SDS011;24609;48.316;16.174;2024-03-02T14:05:11;44.08;;;30.70;;
38859;SDS011;24609;48.316;16.174;2024-03-02T14:07:37;41.75;;;30.90;;
38859;SDS011;24609;48.316;16.174;2024-03-02T14:10:03;39.75;;;30.02;;
38859;SDS011;24609;48.316;16.174;2024-03-02T14:12:29;43.33;;;29.65;;
38859;SDS011;24609;48.316;16.174;2024-03-02T14:14:55;45.90;;;32.55;;
38859;SDS011;24609;48.316;16.174;2024-03-02T14:17:23;44.25;;;31.98;;
38859;SDS011;24609;48.316;16.174;2024-03-02T14:19:49;42.67;;;29.75;;
38859;SDS011;24609;48.316;16.174;2024-03-02T14:22:16;45.78;;;31.58;;
38859;SDS011;24609;48.316;16.174;2024-03-02T14:24:42;42.08;;;30.98;;
38859;SDS011;24609;48.316;16.174;2024-03-02T14:27:09;43.30;;;30.52;;
38859;SDS011;24609;48.316;16.174;2024-03-02T14:29:35;44.90;;;30.42;;